sensor_id;sensor_type;location;lat;lon;timestamp;P1;durP1;ratioP1;P2;durP2;ratioP2
11086;SDS011;5597;47.588;9.642;2023-04-03T00:00:04;2.83;;;2.60;;
11086;SDS011;5597;47.588;9.642;2023-04-03T00:02:31;2.90;;;2.27;;
11086;SDS011;5597;47.588;9.642;2023-04-03T00:04:57;2.50;;;2.30;;
11086;SDS011;5597;47.588;9.642;2023-04-03T00:07:23;2.93;;;2.57;;
11086;SDS011;5597;47.588;9.642;2023-04-03T00:09:49;2.97;;;2.70;;
11086;SDS011;5597;47.588;9.642;2023-04-03T00:12:15;3.10;;;2.80;;
11086;SDS011;5597;47.588;9.642;2023-04-03T00:14:41;3.40;;;2.70;;
11086;SDS011;5597;47.588;9.642;2023-04-03T00:17:06;3.17;;;2.87;;
11086;SDS011;5597;47.588;9.642;2023-04-03T00:19:32;3.50;;;2.77;;
11086;SDS011;5597;47.588;9.642;2023-04-03T00:21:58;2.97;;;2.60;;
11086;SDS011;5597;47.588;9.642;2023-04-03T00:24:23;2.67;;;2.47;;
11086;SDS011;5597;47.588;9.642;2023-04-03T00:26:49;2.63;;;2.43;;
11086;SDS011;5597;47.588;9.642;2023-04-03T00:29:18;2.60;;;2.37;;
11086;SDS011;5597;47.588;9.642;2023-04-03T00:31:44;3.37;;;2.50;;
11086;SDS011;5597;47.588;9.642;2023-04-03T00:34:10;2.60;;;2.40;;
11086;SDS011;5597;47.588;9.642;2023-04-03T00:36:36;2.90;;;2.33;;
11086;SDS011;5597;47.588;9.642;2023-04-03T00:39:01;2.90;;;2.70;;
11086;SDS011;5597;47.588;9.642;2023-04-03T00:41:27;3.57;;;2.63;;
11086;SDS011;5597;47.588;9.642;2023-04-03T00:43:53;2.73;;;2.53;;
11086;SDS011;5597;47.588;9.642;2023-04-03T00:46:19;2.97;;;2.67;;
11086;SDS011;5597;47.588;9.642;2023-04-03T00:48:45;3.33;;;3.03;;
11086;SDS011;5597;47.588;9.642;2023-04-03T00:51:13;3.63;;;3.33;;
11086;SDS011;5597;47.588;9.642;2023-04-03T00:53:46;3.57;;;3.27;;
11086;SDS011;5597;47.588;9.642;2023-04-03T00:56:20;3.73;;;3.37;;
11086;SDS011;5597;47.588;9.642;2023-04-03T00:59:00;3.70;;;3.30;;
11086;SDS011;5597;47.588;9.642;2023-04-03T01:01:32;3.60;;;3.30;;
11086;SDS011;5597;47.588;9.642;2023-04-03T01:03:59;4.00;;;3.60;;
11086;SDS011;5597;47.588;9.642;2023-04-03T01:06:29;4.23;;;3.70;;
11086;SDS011;5597;47.588;9.642;2023-04-03T01:08:57;4.10;;;3.70;;
11086;SDS011;5597;47.588;9.642;2023-04-03T01:11:24;4.53;;;3.93;;
11086;SDS011;5597;47.588;9.642;2023-04-03T01:13:51;3.70;;;3.40;;
11086;SDS011;5597;47.588;9.642;2023-04-03T01:16:17;5.00;;;4.50;;
11086;SDS011;5597;47.588;9.642;2023-04-03T01:18:44;5.00;;;4.17;;
11086;SDS011;5597;47.588;9.642;2023-04-03T01:21:16;4.37;;;3.97;;
11086;SDS011;5597;47.588;9.642;2023-04-03T01:23:52;4.40;;;4.00;;
11086;SDS011;5597;47.588;9.642;2023-04-03T01:26:20;5.37;;;4.87;;
11086;SDS011;5597;47.588;9.642;2023-04-03T01:28:46;5.00;;;4.50;;
11086;SDS011;5597;47.588;9.642;2023-04-03T01:33:56;5.20;;;4.70;;
11086;SDS011;5597;47.588;9.642;2023-04-03T01:36:24;5.40;;;4.90;;
11086;SDS011;5597;47.588;9.642;2023-04-03T01:38:52;7.90;;;5.00;;
11086;SDS011;5597;47.588;9.642;2023-04-03T01:41:20;5.70;;;4.77;;
11086;SDS011;5597;47.588;9.642;2023-04-03T01:43:48;6.60;;;5.40;;
11086;SDS011;5597;47.588;9.642;2023-04-03T01:46:17;6.43;;;4.60;;
11086;SDS011;5597;47.588;9.642;2023-04-03T01:48:44;5.43;;;4.93;;
11086;SDS011;5597;47.588;9.642;2023-04-03T01:51:11;5.73;;;4.80;;
11086;SDS011;5597;47.588;9.642;2023-04-03T01:53:37;5.43;;;4.93;;
11086;SDS011;5597;47.588;9.642;2023-04-03T01:56:02;5.50;;;4.90;;
11086;SDS011;5597;47.588;9.642;2023-04-03T01:58:29;6.03;;;5.43;;
11086;SDS011;5597;47.588;9.642;2023-04-03T02:00:54;5.43;;;4.93;;
11086;SDS011;5597;47.588;9.642;2023-04-03T02:03:20;6.23;;;5.37;;
11086;SDS011;5597;47.588;9.642;2023-04-03T02:05:46;5.40;;;4.90;;
11086;SDS011;5597;47.588;9.642;2023-04-03T02:08:12;6.53;;;5.50;;
11086;SDS011;5597;47.588;9.642;2023-04-03T02:10:38;6.47;;;5.43;;
11086;SDS011;5597;47.588;9.642;2023-04-03T02:13:04;5.77;;;5.17;;
11086;SDS011;5597;47.588;9.642;2023-04-03T02:15:30;6.37;;;5.63;;
11086;SDS011;5597;47.588;9.642;2023-04-03T02:17:56;6.27;;;5.30;;
11086;SDS011;5597;47.588;9.642;2023-04-03T02:20:22;7.53;;;5.90;;
11086;SDS011;5597;47.588;9.642;2023-04-03T02:22:48;5.83;;;5.27;;
11086;SDS011;5597;47.588;9.642;2023-04-03T02:25:13;6.50;;;5.90;;
11086;SDS011;5597;47.588;9.642;2023-04-03T02:27:39;6.60;;;5.60;;
11086;SDS011;5597;47.588;9.642;2023-04-03T02:30:05;6.20;;;5.60;;
11086;SDS011;5597;47.588;9.642;2023-04-03T02:32:31;7.00;;;6.00;;
11086;SDS011;5597;47.588;9.642;2023-04-03T02:34:57;6.60;;;5.90;;
11086;SDS011;5597;47.588;9.642;2023-04-03T02:37:23;6.63;;;5.93;;
11086;SDS011;5597;47.588;9.642;2023-04-03T02:39:49;6.33;;;5.73;;
11086;SDS011;5597;47.588;9.642;2023-04-03T02:42:15;6.10;;;5.50;;
11086;SDS011;5597;47.588;9.642;2023-04-03T02:44:41;6.23;;;5.63;;
11086;SDS011;5597;47.588;9.642;2023-04-03T02:47:06;7.47;;;6.07;;
11086;SDS011;5597;47.588;9.642;2023-04-03T02:49:32;7.50;;;5.23;;
11086;SDS011;5597;47.588;9.642;2023-04-03T02:51:58;6.00;;;5.23;;
11086;SDS011;5597;47.588;9.642;2023-04-03T02:54:23;6.47;;;5.33;;
11086;SDS011;5597;47.588;9.642;2023-04-03T02:56:52;6.33;;;5.53;;
11086;SDS011;5597;47.588;9.642;2023-04-03T02:59:18;6.70;;;5.60;;
11086;SDS011;5597;47.588;9.642;2023-04-03T03:01:44;5.87;;;5.27;;
11086;SDS011;5597;47.588;9.642;2023-04-03T03:04:09;6.13;;;5.53;;
11086;SDS011;5597;47.588;9.642;2023-04-03T03:06:35;6.93;;;6.00;;
11086;SDS011;5597;47.588;9.642;2023-04-03T03:09:00;6.33;;;5.60;;
11086;SDS011;5597;47.588;9.642;2023-04-03T03:11:26;6.97;;;5.93;;
11086;SDS011;5597;47.588;9.642;2023-04-03T03:13:52;7.23;;;6.20;;
11086;SDS011;5597;47.588;9.642;2023-04-03T03:16:17;6.73;;;6.03;;
11086;SDS011;5597;47.588;9.642;2023-04-03T03:18:43;7.87;;;7.00;;
11086;SDS011;5597;47.588;9.642;2023-04-03T03:21:09;8.27;;;6.93;;
11086;SDS011;5597;47.588;9.642;2023-04-03T03:23:35;8.67;;;6.60;;
11086;SDS011;5597;47.588;9.642;2023-04-03T03:26:03;7.37;;;6.47;;
11086;SDS011;5597;47.588;9.642;2023-04-03T03:28:30;7.60;;;6.63;;
11086;SDS011;5597;47.588;9.642;2023-04-03T03:30:58;9.90;;;6.70;;
11086;SDS011;5597;47.588;9.642;2023-04-03T03:33:24;7.43;;;6.63;;
11086;SDS011;5597;47.588;9.642;2023-04-03T03:35:51;7.83;;;6.73;;
11086;SDS011;5597;47.588;9.642;2023-04-03T03:38:17;7.07;;;6.27;;
11086;SDS011;5597;47.588;9.642;2023-04-03T03:40:43;7.97;;;7.17;;
11086;SDS011;5597;47.588;9.642;2023-04-03T03:43:09;7.70;;;6.80;;
11086;SDS011;5597;47.588;9.642;2023-04-03T03:45:35;7.67;;;6.63;;
11086;SDS011;5597;47.588;9.642;2023-04-03T03:48:02;7.23;;;6.53;;
11086;SDS011;5597;47.588;9.642;2023-04-03T03:50:28;7.37;;;6.50;;
11086;SDS011;5597;47.588;9.642;2023-04-03T03:52:54;7.37;;;6.63;;
11086;SDS011;5597;47.588;9.642;2023-04-03T03:55:20;6.87;;;6.17;;
11086;SDS011;5597;47.588;9.642;2023-04-03T03:57:45;7.27;;;6.40;;
11086;SDS011;5597;47.588;9.642;2023-04-03T04:00:11;7.97;;;6.43;;
11086;SDS011;5597;47.588;9.642;2023-04-03T04:02:37;7.47;;;6.13;;
11086;SDS011;5597;47.588;9.642;2023-04-03T04:05:03;7.13;;;6.43;;
11086;SDS011;5597;47.588;9.642;2023-04-03T04:07:29;7.27;;;6.27;;
11086;SDS011;5597;47.588;9.642;2023-04-03T04:09:54;7.13;;;6.40;;
11086;SDS011;5597;47.588;9.642;2023-04-03T04:12:20;7.13;;;6.17;;
11086;SDS011;5597;47.588;9.642;2023-04-03T04:14:46;7.87;;;6.50;;
11086;SDS011;5597;47.588;9.642;2023-04-03T04:17:12;7.63;;;6.80;;
11086;SDS011;5597;47.588;9.642;2023-04-03T04:19:39;8.50;;;7.03;;
11086;SDS011;5597;47.588;9.642;2023-04-03T04:22:04;8.03;;;6.43;;
11086;SDS011;5597;47.588;9.642;2023-04-03T04:24:30;7.60;;;6.80;;
11086;SDS011;5597;47.588;9.642;2023-04-03T04:26:55;8.93;;;7.70;;
11086;SDS011;5597;47.588;9.642;2023-04-03T04:29:21;8.00;;;7.20;;
11086;SDS011;5597;47.588;9.642;2023-04-03T04:31:47;7.73;;;6.93;;
11086;SDS011;5597;47.588;9.642;2023-04-03T04:34:13;7.70;;;6.57;;
11086;SDS011;5597;47.588;9.642;2023-04-03T04:36:39;8.60;;;7.43;;
11086;SDS011;5597;47.588;9.642;2023-04-03T04:39:05;7.80;;;7.00;;
11086;SDS011;5597;47.588;9.642;2023-04-03T04:41:31;8.33;;;6.63;;
11086;SDS011;5597;47.588;9.642;2023-04-03T04:43:57;8.10;;;7.30;;
11086;SDS011;5597;47.588;9.642;2023-04-03T04:46:23;9.47;;;7.40;;
11086;SDS011;5597;47.588;9.642;2023-04-03T04:48:49;7.83;;;7.00;;
11086;SDS011;5597;47.588;9.642;2023-04-03T04:51:14;9.10;;;8.03;;
11086;SDS011;5597;47.588;9.642;2023-04-03T04:53:41;8.43;;;7.30;;
11086;SDS011;5597;47.588;9.642;2023-04-03T04:56:07;9.63;;;7.37;;
11086;SDS011;5597;47.588;9.642;2023-04-03T04:58:33;8.60;;;7.50;;
11086;SDS011;5597;47.588;9.642;2023-04-03T05:01:03;8.27;;;7.43;;
11086;SDS011;5597;47.588;9.642;2023-04-03T05:03:31;7.70;;;6.90;;
11086;SDS011;5597;47.588;9.642;2023-04-03T05:05:57;8.13;;;7.33;;
11086;SDS011;5597;47.588;9.642;2023-04-03T05:08:24;7.77;;;7.00;;
11086;SDS011;5597;47.588;9.642;2023-04-03T05:10:49;9.37;;;8.07;;
11086;SDS011;5597;47.588;9.642;2023-04-03T05:13:16;7.93;;;7.00;;
11086;SDS011;5597;47.588;9.642;2023-04-03T05:15:41;7.90;;;7.10;;
11086;SDS011;5597;47.588;9.642;2023-04-03T05:18:07;9.07;;;7.60;;
11086;SDS011;5597;47.588;9.642;2023-04-03T05:20:33;8.60;;;6.80;;
11086;SDS011;5597;47.588;9.642;2023-04-03T05:22:59;8.17;;;7.37;;
11086;SDS011;5597;47.588;9.642;2023-04-03T05:25:24;8.70;;;7.20;;
11086;SDS011;5597;47.588;9.642;2023-04-03T05:27:57;8.50;;;7.10;;
11086;SDS011;5597;47.588;9.642;2023-04-03T05:30:22;8.50;;;7.00;;
11086;SDS011;5597;47.588;9.642;2023-04-03T05:32:51;7.97;;;7.13;;
11086;SDS011;5597;47.588;9.642;2023-04-03T05:35:17;8.00;;;7.10;;
11086;SDS011;5597;47.588;9.642;2023-04-03T05:37:43;8.33;;;6.93;;
11086;SDS011;5597;47.588;9.642;2023-04-03T05:40:09;7.37;;;6.43;;
11086;SDS011;5597;47.588;9.642;2023-04-03T05:42:35;8.17;;;7.37;;
11086;SDS011;5597;47.588;9.642;2023-04-03T05:45:00;7.77;;;6.97;;
11086;SDS011;5597;47.588;9.642;2023-04-03T05:47:26;8.23;;;7.03;;
11086;SDS011;5597;47.588;9.642;2023-04-03T05:49:51;8.30;;;7.10;;
11086;SDS011;5597;47.588;9.642;2023-04-03T05:52:20;8.70;;;7.40;;
11086;SDS011;5597;47.588;9.642;2023-04-03T05:54:48;9.00;;;6.57;;
11086;SDS011;5597;47.588;9.642;2023-04-03T05:57:14;8.00;;;6.90;;
11086;SDS011;5597;47.588;9.642;2023-04-03T05:59:41;8.30;;;7.00;;
11086;SDS011;5597;47.588;9.642;2023-04-03T06:02:14;7.27;;;6.43;;
11086;SDS011;5597;47.588;9.642;2023-04-03T06:04:42;8.43;;;7.23;;
11086;SDS011;5597;47.588;9.642;2023-04-03T06:07:12;8.27;;;6.60;;
11086;SDS011;5597;47.588;9.642;2023-04-03T06:09:40;7.80;;;6.83;;
11086;SDS011;5597;47.588;9.642;2023-04-03T06:12:06;7.70;;;6.47;;
11086;SDS011;5597;47.588;9.642;2023-04-03T06:14:32;8.17;;;6.17;;
11086;SDS011;5597;47.588;9.642;2023-04-03T06:16:58;7.47;;;6.43;;
11086;SDS011;5597;47.588;9.642;2023-04-03T06:19:24;7.57;;;6.37;;
11086;SDS011;5597;47.588;9.642;2023-04-03T06:21:50;7.47;;;6.67;;
11086;SDS011;5597;47.588;9.642;2023-04-03T06:24:16;8.40;;;6.57;;
11086;SDS011;5597;47.588;9.642;2023-04-03T06:26:44;7.77;;;6.30;;
11086;SDS011;5597;47.588;9.642;2023-04-03T06:29:10;8.60;;;6.60;;
11086;SDS011;5597;47.588;9.642;2023-04-03T06:31:36;7.90;;;6.30;;
11086;SDS011;5597;47.588;9.642;2023-04-03T06:34:02;8.37;;;6.37;;
11086;SDS011;5597;47.588;9.642;2023-04-03T06:36:28;6.87;;;6.17;;
11086;SDS011;5597;47.588;9.642;2023-04-03T06:38:54;8.00;;;6.60;;
11086;SDS011;5597;47.588;9.642;2023-04-03T06:41:20;8.30;;;5.73;;
11086;SDS011;5597;47.588;9.642;2023-04-03T06:43:46;7.47;;;5.80;;
11086;SDS011;5597;47.588;9.642;2023-04-03T06:46:15;7.33;;;6.17;;
11086;SDS011;5597;47.588;9.642;2023-04-03T06:48:42;7.50;;;6.20;;
11086;SDS011;5597;47.588;9.642;2023-04-03T06:53:49;7.10;;;6.30;;
11086;SDS011;5597;47.588;9.642;2023-04-03T06:56:16;8.03;;;6.33;;
11086;SDS011;5597;47.588;9.642;2023-04-03T06:58:42;8.23;;;6.50;;
11086;SDS011;5597;47.588;9.642;2023-04-03T07:01:09;7.60;;;6.23;;
11086;SDS011;5597;47.588;9.642;2023-04-03T07:03:37;6.67;;;5.90;;
11086;SDS011;5597;47.588;9.642;2023-04-03T07:06:04;6.47;;;5.77;;
11086;SDS011;5597;47.588;9.642;2023-04-03T07:08:30;7.20;;;5.83;;
11086;SDS011;5597;47.588;9.642;2023-04-03T07:10:57;7.40;;;6.43;;
11086;SDS011;5597;47.588;9.642;2023-04-03T07:13:23;6.57;;;5.90;;
11086;SDS011;5597;47.588;9.642;2023-04-03T07:15:48;6.73;;;6.03;;
11086;SDS011;5597;47.588;9.642;2023-04-03T07:18:15;6.33;;;5.73;;
11086;SDS011;5597;47.588;9.642;2023-04-03T07:20:51;6.50;;;5.53;;
11086;SDS011;5597;47.588;9.642;2023-04-03T07:23:17;6.63;;;5.97;;
11086;SDS011;5597;47.588;9.642;2023-04-03T07:25:44;6.83;;;6.10;;
11086;SDS011;5597;47.588;9.642;2023-04-03T07:28:14;6.50;;;5.80;;
11086;SDS011;5597;47.588;9.642;2023-04-03T07:30:44;7.90;;;5.97;;
11086;SDS011;5597;47.588;9.642;2023-04-03T07:33:12;8.47;;;6.30;;
11086;SDS011;5597;47.588;9.642;2023-04-03T07:35:40;6.73;;;5.60;;
11086;SDS011;5597;47.588;9.642;2023-04-03T07:38:07;6.53;;;5.30;;
11086;SDS011;5597;47.588;9.642;2023-04-03T07:40:33;6.27;;;5.50;;
11086;SDS011;5597;47.588;9.642;2023-04-03T07:43:03;8.07;;;5.80;;
11086;SDS011;5597;47.588;9.642;2023-04-03T07:45:29;5.93;;;5.33;;
11086;SDS011;5597;47.588;9.642;2023-04-03T07:47:58;7.43;;;5.80;;
11086;SDS011;5597;47.588;9.642;2023-04-03T07:50:23;5.93;;;5.33;;
11086;SDS011;5597;47.588;9.642;2023-04-03T07:52:49;6.20;;;5.60;;
11086;SDS011;5597;47.588;9.642;2023-04-03T07:55:16;6.10;;;5.40;;
11086;SDS011;5597;47.588;9.642;2023-04-03T07:57:41;6.10;;;5.50;;
11086;SDS011;5597;47.588;9.642;2023-04-03T08:00:07;6.53;;;5.50;;
11086;SDS011;5597;47.588;9.642;2023-04-03T08:02:34;6.03;;;5.43;;
11086;SDS011;5597;47.588;9.642;2023-04-03T08:05:00;5.40;;;4.90;;
11086;SDS011;5597;47.588;9.642;2023-04-03T08:07:26;5.93;;;4.97;;
11086;SDS011;5597;47.588;9.642;2023-04-03T08:09:52;6.93;;;5.40;;
11086;SDS011;5597;47.588;9.642;2023-04-03T08:12:18;5.70;;;4.87;;
11086;SDS011;5597;47.588;9.642;2023-04-03T08:14:43;6.27;;;5.10;;
11086;SDS011;5597;47.588;9.642;2023-04-03T08:17:09;5.70;;;5.03;;
11086;SDS011;5597;47.588;9.642;2023-04-03T08:19:37;5.80;;;5.20;;
11086;SDS011;5597;47.588;9.642;2023-04-03T08:22:03;5.40;;;4.60;;
11086;SDS011;5597;47.588;9.642;2023-04-03T08:24:30;5.07;;;4.63;;
11086;SDS011;5597;47.588;9.642;2023-04-03T08:26:57;5.80;;;5.30;;
11086;SDS011;5597;47.588;9.642;2023-04-03T08:29:23;5.87;;;5.33;;
11086;SDS011;5597;47.588;9.642;2023-04-03T08:31:49;6.27;;;5.43;;
11086;SDS011;5597;47.588;9.642;2023-04-03T08:34:16;5.57;;;5.07;;
11086;SDS011;5597;47.588;9.642;2023-04-03T08:36:42;5.17;;;4.70;;
11086;SDS011;5597;47.588;9.642;2023-04-03T08:39:08;6.97;;;5.70;;
11086;SDS011;5597;47.588;9.642;2023-04-03T08:41:35;6.07;;;5.47;;
11086;SDS011;5597;47.588;9.642;2023-04-03T08:47:09;5.53;;;5.03;;
11086;SDS011;5597;47.588;9.642;2023-04-03T08:49:40;5.17;;;4.67;;
11086;SDS011;5597;47.588;9.642;2023-04-03T08:52:19;5.53;;;4.73;;
11086;SDS011;5597;47.588;9.642;2023-04-03T08:58:05;6.70;;;4.80;;
11086;SDS011;5597;47.588;9.642;2023-04-03T09:00:49;5.87;;;4.70;;
11086;SDS011;5597;47.588;9.642;2023-04-03T09:03:22;6.83;;;5.40;;
11086;SDS011;5597;47.588;9.642;2023-04-03T09:06:11;5.87;;;4.87;;
11086;SDS011;5597;47.588;9.642;2023-04-03T09:19:58;5.30;;;4.77;;
11086;SDS011;5597;47.588;9.642;2023-04-03T09:22:54;5.53;;;5.03;;
11086;SDS011;5597;47.588;9.642;2023-04-03T09:25:33;5.47;;;4.50;;
11086;SDS011;5597;47.588;9.642;2023-04-03T09:28:02;5.37;;;4.87;;
11086;SDS011;5597;47.588;9.642;2023-04-03T09:30:29;4.80;;;4.30;;
11086;SDS011;5597;47.588;9.642;2023-04-03T09:32:55;5.90;;;4.90;;
11086;SDS011;5597;47.588;9.642;2023-04-03T09:35:24;5.47;;;4.60;;
11086;SDS011;5597;47.588;9.642;2023-04-03T09:37:52;6.10;;;4.37;;
11086;SDS011;5597;47.588;9.642;2023-04-03T09:42:51;4.80;;;4.40;;
11086;SDS011;5597;47.588;9.642;2023-04-03T09:45:22;5.07;;;4.30;;
11086;SDS011;5597;47.588;9.642;2023-04-03T09:50:41;6.37;;;4.80;;
11086;SDS011;5597;47.588;9.642;2023-04-03T09:58:40;4.77;;;4.37;;
11086;SDS011;5597;47.588;9.642;2023-04-03T10:06:35;5.07;;;4.50;;
11086;SDS011;5597;47.588;9.642;2023-04-03T10:09:24;5.27;;;4.77;;
11086;SDS011;5597;47.588;9.642;2023-04-03T10:14:26;5.07;;;4.57;;
11086;SDS011;5597;47.588;9.642;2023-04-03T10:17:02;5.10;;;4.60;;
11086;SDS011;5597;47.588;9.642;2023-04-03T10:30:36;6.53;;;4.53;;
11086;SDS011;5597;47.588;9.642;2023-04-03T10:38:54;4.37;;;3.97;;
11086;SDS011;5597;47.588;9.642;2023-04-03T10:44:34;4.10;;;3.70;;
11086;SDS011;5597;47.588;9.642;2023-04-03T10:47:27;4.30;;;3.90;;
11086;SDS011;5597;47.588;9.642;2023-04-03T10:50:15;26.37;;;15.93;;
11086;SDS011;5597;47.588;9.642;2023-04-03T10:53:08;4.93;;;4.43;;
11086;SDS011;5597;47.588;9.642;2023-04-03T10:58:56;3.77;;;3.47;;
11086;SDS011;5597;47.588;9.642;2023-04-03T11:01:44;3.93;;;3.63;;
11086;SDS011;5597;47.588;9.642;2023-04-03T11:04:12;4.30;;;3.63;;
11086;SDS011;5597;47.588;9.642;2023-04-03T11:06:43;4.13;;;3.27;;
11086;SDS011;5597;47.588;9.642;2023-04-03T11:11:53;5.43;;;3.20;;
11086;SDS011;5597;47.588;9.642;2023-04-03T11:14:27;3.70;;;3.03;;
11086;SDS011;5597;47.588;9.642;2023-04-03T11:17:19;3.20;;;2.80;;
11086;SDS011;5597;47.588;9.642;2023-04-03T11:22:36;3.93;;;3.53;;
11086;SDS011;5597;47.588;9.642;2023-04-03T11:25:14;3.80;;;2.77;;
11086;SDS011;5597;47.588;9.642;2023-04-03T11:28:09;3.93;;;2.77;;
11086;SDS011;5597;47.588;9.642;2023-04-03T11:36:06;3.27;;;2.43;;
11086;SDS011;5597;47.588;9.642;2023-04-03T11:38:41;2.50;;;2.30;;
11086;SDS011;5597;47.588;9.642;2023-04-03T11:41:11;2.63;;;2.43;;
11086;SDS011;5597;47.588;9.642;2023-04-03T11:43:42;3.77;;;2.63;;
11086;SDS011;5597;47.588;9.642;2023-04-03T11:53:11;2.70;;;2.50;;
11086;SDS011;5597;47.588;9.642;2023-04-03T12:08:24;2.73;;;2.30;;
11086;SDS011;5597;47.588;9.642;2023-04-03T12:16:03;2.37;;;2.17;;
11086;SDS011;5597;47.588;9.642;2023-04-03T12:18:54;2.60;;;2.40;;
11086;SDS011;5597;47.588;9.642;2023-04-03T12:24:12;2.63;;;2.30;;
11086;SDS011;5597;47.588;9.642;2023-04-03T12:29:54;2.77;;;2.50;;
11086;SDS011;5597;47.588;9.642;2023-04-03T12:35:15;3.20;;;2.90;;
11086;SDS011;5597;47.588;9.642;2023-04-03T12:48:39;2.90;;;2.60;;
11086;SDS011;5597;47.588;9.642;2023-04-03T12:51:15;6.30;;;5.67;;
11086;SDS011;5597;47.588;9.642;2023-04-03T12:53:44;3.37;;;3.03;;
11086;SDS011;5597;47.588;9.642;2023-04-03T12:58:56;3.40;;;2.90;;
11086;SDS011;5597;47.588;9.642;2023-04-03T13:01:39;3.67;;;2.53;;
11086;SDS011;5597;47.588;9.642;2023-04-03T13:04:05;2.60;;;2.40;;
11086;SDS011;5597;47.588;9.642;2023-04-03T13:06:33;3.10;;;2.80;;
11086;SDS011;5597;47.588;9.642;2023-04-03T13:09:38;3.53;;;2.67;;
11086;SDS011;5597;47.588;9.642;2023-04-03T13:11:58;3.07;;;2.70;;
11086;SDS011;5597;47.588;9.642;2023-04-03T13:14:28;2.77;;;2.57;;
11086;SDS011;5597;47.588;9.642;2023-04-03T13:16:56;4.00;;;3.60;;
11086;SDS011;5597;47.588;9.642;2023-04-03T13:19:22;3.20;;;2.83;;
11086;SDS011;5597;47.588;9.642;2023-04-03T13:21:54;2.97;;;2.70;;
11086;SDS011;5597;47.588;9.642;2023-04-03T13:24:47;4.57;;;2.87;;
11086;SDS011;5597;47.588;9.642;2023-04-03T13:27:15;4.73;;;2.87;;
11086;SDS011;5597;47.588;9.642;2023-04-03T13:29:42;2.80;;;2.60;;
11086;SDS011;5597;47.588;9.642;2023-04-03T13:32:13;3.03;;;2.73;;
11086;SDS011;5597;47.588;9.642;2023-04-03T13:34:47;3.10;;;2.77;;
11086;SDS011;5597;47.588;9.642;2023-04-03T13:37:20;3.20;;;2.90;;
11086;SDS011;5597;47.588;9.642;2023-04-03T13:39:58;2.73;;;2.50;;
11086;SDS011;5597;47.588;9.642;2023-04-03T13:42:25;3.07;;;2.77;;
11086;SDS011;5597;47.588;9.642;2023-04-03T13:47:49;3.67;;;2.53;;
11086;SDS011;5597;47.588;9.642;2023-04-03T13:52:49;3.57;;;2.80;;
11086;SDS011;5597;47.588;9.642;2023-04-03T13:55:22;3.50;;;3.20;;
11086;SDS011;5597;47.588;9.642;2023-04-03T13:57:56;3.10;;;2.80;;
11086;SDS011;5597;47.588;9.642;2023-04-03T14:00:33;2.80;;;2.50;;
11086;SDS011;5597;47.588;9.642;2023-04-03T14:06:04;3.67;;;3.27;;
11086;SDS011;5597;47.588;9.642;2023-04-03T14:08:31;3.60;;;3.13;;
11086;SDS011;5597;47.588;9.642;2023-04-03T14:10:57;3.37;;;3.07;;
11086;SDS011;5597;47.588;9.642;2023-04-03T14:13:23;4.83;;;2.77;;
11086;SDS011;5597;47.588;9.642;2023-04-03T14:15:49;3.30;;;3.00;;
11086;SDS011;5597;47.588;9.642;2023-04-03T14:18:18;3.10;;;2.80;;
11086;SDS011;5597;47.588;9.642;2023-04-03T14:20:45;3.17;;;2.53;;
11086;SDS011;5597;47.588;9.642;2023-04-03T14:23:11;4.67;;;2.97;;
11086;SDS011;5597;47.588;9.642;2023-04-03T14:25:38;4.00;;;3.00;;
11086;SDS011;5597;47.588;9.642;2023-04-03T14:28:16;3.23;;;2.70;;
11086;SDS011;5597;47.588;9.642;2023-04-03T14:30:44;3.53;;;2.63;;
11086;SDS011;5597;47.588;9.642;2023-04-03T14:33:15;3.60;;;2.73;;
11086;SDS011;5597;47.588;9.642;2023-04-03T14:35:43;2.80;;;2.60;;
11086;SDS011;5597;47.588;9.642;2023-04-03T14:38:30;3.57;;;2.70;;
11086;SDS011;5597;47.588;9.642;2023-04-03T14:40:59;3.20;;;2.90;;
11086;SDS011;5597;47.588;9.642;2023-04-03T14:43:24;3.90;;;2.63;;
11086;SDS011;5597;47.588;9.642;2023-04-03T14:45:51;3.63;;;2.97;;
11086;SDS011;5597;47.588;9.642;2023-04-03T14:48:22;3.87;;;2.90;;
11086;SDS011;5597;47.588;9.642;2023-04-03T14:50:49;3.07;;;2.77;;
11086;SDS011;5597;47.588;9.642;2023-04-03T14:53:16;3.93;;;3.37;;
11086;SDS011;5597;47.588;9.642;2023-04-03T14:55:47;3.07;;;2.70;;
11086;SDS011;5597;47.588;9.642;2023-04-03T14:58:15;2.87;;;2.53;;
11086;SDS011;5597;47.588;9.642;2023-04-03T15:00:42;3.40;;;2.73;;
11086;SDS011;5597;47.588;9.642;2023-04-03T15:03:19;3.53;;;2.90;;
11086;SDS011;5597;47.588;9.642;2023-04-03T15:05:46;4.33;;;2.80;;
11086;SDS011;5597;47.588;9.642;2023-04-03T15:08:32;3.23;;;2.93;;
11086;SDS011;5597;47.588;9.642;2023-04-03T15:10:58;3.47;;;2.60;;
11086;SDS011;5597;47.588;9.642;2023-04-03T15:13:23;3.30;;;3.00;;
11086;SDS011;5597;47.588;9.642;2023-04-03T15:15:50;4.60;;;2.70;;
11086;SDS011;5597;47.588;9.642;2023-04-03T15:18:18;3.13;;;2.83;;
11086;SDS011;5597;47.588;9.642;2023-04-03T15:20:46;4.20;;;2.47;;
11086;SDS011;5597;47.588;9.642;2023-04-03T15:23:13;3.73;;;2.90;;
11086;SDS011;5597;47.588;9.642;2023-04-03T15:25:41;3.73;;;2.70;;
11086;SDS011;5597;47.588;9.642;2023-04-03T15:28:44;3.27;;;2.63;;
11086;SDS011;5597;47.588;9.642;2023-04-03T15:31:05;3.13;;;2.83;;
11086;SDS011;5597;47.588;9.642;2023-04-03T15:33:31;3.17;;;2.67;;
11086;SDS011;5597;47.588;9.642;2023-04-03T15:35:58;3.77;;;3.00;;
11086;SDS011;5597;47.588;9.642;2023-04-03T15:38:24;4.43;;;3.00;;
11086;SDS011;5597;47.588;9.642;2023-04-03T15:40:50;4.23;;;3.17;;
11086;SDS011;5597;47.588;9.642;2023-04-03T15:43:17;4.53;;;3.10;;
11086;SDS011;5597;47.588;9.642;2023-04-03T15:45:42;4.03;;;3.63;;
11086;SDS011;5597;47.588;9.642;2023-04-03T15:48:12;3.47;;;3.07;;
11086;SDS011;5597;47.588;9.642;2023-04-03T15:50:38;3.80;;;3.40;;
11086;SDS011;5597;47.588;9.642;2023-04-03T15:53:04;4.97;;;3.97;;
11086;SDS011;5597;47.588;9.642;2023-04-03T15:55:30;3.57;;;3.23;;
11086;SDS011;5597;47.588;9.642;2023-04-03T15:57:59;3.93;;;3.10;;
11086;SDS011;5597;47.588;9.642;2023-04-03T16:00:25;3.77;;;2.87;;
11086;SDS011;5597;47.588;9.642;2023-04-03T16:02:53;3.73;;;3.10;;
11086;SDS011;5597;47.588;9.642;2023-04-03T16:05:40;5.33;;;3.00;;
11086;SDS011;5597;47.588;9.642;2023-04-03T16:08:05;3.63;;;3.00;;
11086;SDS011;5597;47.588;9.642;2023-04-03T16:10:33;3.73;;;2.83;;
11086;SDS011;5597;47.588;9.642;2023-04-03T16:13:02;4.17;;;2.90;;
11086;SDS011;5597;47.588;9.642;2023-04-03T16:15:28;3.33;;;2.97;;
11086;SDS011;5597;47.588;9.642;2023-04-03T16:17:56;4.10;;;3.17;;
11086;SDS011;5597;47.588;9.642;2023-04-03T16:20:23;4.20;;;3.57;;
11086;SDS011;5597;47.588;9.642;2023-04-03T16:22:49;4.43;;;3.10;;
11086;SDS011;5597;47.588;9.642;2023-04-03T16:25:15;4.00;;;3.20;;
11086;SDS011;5597;47.588;9.642;2023-04-03T16:27:42;3.90;;;3.30;;
11086;SDS011;5597;47.588;9.642;2023-04-03T16:30:08;4.90;;;3.23;;
11086;SDS011;5597;47.588;9.642;2023-04-03T16:32:35;4.03;;;3.07;;
11086;SDS011;5597;47.588;9.642;2023-04-03T16:35:01;4.23;;;3.30;;
11086;SDS011;5597;47.588;9.642;2023-04-03T16:37:27;3.37;;;3.07;;
11086;SDS011;5597;47.588;9.642;2023-04-03T16:39:53;4.57;;;3.40;;
11086;SDS011;5597;47.588;9.642;2023-04-03T16:42:19;3.50;;;3.20;;
11086;SDS011;5597;47.588;9.642;2023-04-03T16:44:44;3.80;;;3.30;;
11086;SDS011;5597;47.588;9.642;2023-04-03T16:47:10;4.03;;;3.20;;
11086;SDS011;5597;47.588;9.642;2023-04-03T16:49:37;6.27;;;3.40;;
11086;SDS011;5597;47.588;9.642;2023-04-03T16:52:03;3.80;;;3.40;;
11086;SDS011;5597;47.588;9.642;2023-04-03T16:54:30;3.40;;;3.10;;
11086;SDS011;5597;47.588;9.642;2023-04-03T16:56:56;3.73;;;3.33;;
11086;SDS011;5597;47.588;9.642;2023-04-03T16:59:22;3.80;;;3.20;;
11086;SDS011;5597;47.588;9.642;2023-04-03T17:01:48;3.43;;;3.13;;
11086;SDS011;5597;47.588;9.642;2023-04-03T17:04:14;3.10;;;2.80;;
11086;SDS011;5597;47.588;9.642;2023-04-03T17:06:40;3.37;;;2.90;;
11086;SDS011;5597;47.588;9.642;2023-04-03T17:09:06;4.17;;;3.13;;
11086;SDS011;5597;47.588;9.642;2023-04-03T17:11:32;4.17;;;2.87;;
11086;SDS011;5597;47.588;9.642;2023-04-03T17:13:58;3.43;;;3.10;;
11086;SDS011;5597;47.588;9.642;2023-04-03T17:16:24;4.53;;;3.30;;
11086;SDS011;5597;47.588;9.642;2023-04-03T17:18:51;4.33;;;3.37;;